sensor_id;sensor_type;location;lat;lon;timestamp;P1;durP1;ratioP1;P2;durP2;ratioP2
10896;SDS011;5501;51.176;6.470;2023-11-18T00:02:02;19.83;;;10.38;;
10896;SDS011;5501;51.176;6.470;2023-11-18T00:07:04;18.88;;;9.48;;
10896;SDS011;5501;51.176;6.470;2023-11-18T00:12:06;17.63;;;9.18;;
10896;SDS011;5501;51.176;6.470;2023-11-18T00:17:07;19.70;;;9.32;;
10896;SDS011;5501;51.176;6.470;2023-11-18T00:22:09;16.27;;;9.40;;
10896;SDS011;5501;51.176;6.470;2023-11-18T00:27:12;18.90;;;9.68;;
10896;SDS011;5501;51.176;6.470;2023-11-18T00:32:16;19.17;;;10.45;;
10896;SDS011;5501;51.176;6.470;2023-11-18T00:37:19;17.85;;;8.93;;
10896;SDS011;5501;51.176;6.470;2023-11-18T00:42:20;22.52;;;9.70;;
10896;SDS011;5501;51.176;6.470;2023-11-18T00:47:22;21.55;;;10.70;;
10896;SDS011;5501;51.176;6.470;2023-11-18T00:52:24;16.52;;;9.13;;
10896;SDS011;5501;51.176;6.470;2023-11-18T00:57:26;15.95;;;10.32;;
10896;SDS011;5501;51.176;6.470;2023-11-18T01:02:28;17.95;;;8.73;;
10896;SDS011;5501;51.176;6.470;2023-11-18T01:07:30;23.80;;;9.68;;
10896;SDS011;5501;51.176;6.470;2023-11-18T01:12:31;14.73;;;8.55;;
10896;SDS011;5501;51.176;6.470;2023-11-18T01:17:34;14.90;;;8.65;;
10896;SDS011;5501;51.176;6.470;2023-11-18T01:22:35;18.65;;;9.77;;
10896;SDS011;5501;51.176;6.470;2023-11-18T01:27:37;17.80;;;9.38;;
10896;SDS011;5501;51.176;6.470;2023-11-18T01:32:39;16.20;;;7.35;;
10896;SDS011;5501;51.176;6.470;2023-11-18T01:37:45;17.33;;;8.52;;
10896;SDS011;5501;51.176;6.470;2023-11-18T01:42:46;18.67;;;9.52;;
10896;SDS011;5501;51.176;6.470;2023-11-18T01:47:48;13.75;;;7.82;;
10896;SDS011;5501;51.176;6.470;2023-11-18T01:52:50;17.40;;;8.90;;
10896;SDS011;5501;51.176;6.470;2023-11-18T01:57:52;19.88;;;9.48;;
10896;SDS011;5501;51.176;6.470;2023-11-18T02:02:54;14.45;;;9.13;;
10896;SDS011;5501;51.176;6.470;2023-11-18T02:07:56;15.63;;;10.05;;
10896;SDS011;5501;51.176;6.470;2023-11-18T02:13:06;15.05;;;9.13;;
10896;SDS011;5501;51.176;6.470;2023-11-18T02:18:14;19.35;;;9.43;;
10896;SDS011;5501;51.176;6.470;2023-11-18T02:23:16;22.30;;;10.20;;
10896;SDS011;5501;51.176;6.470;2023-11-18T02:28:18;14.25;;;8.95;;
10896;SDS011;5501;51.176;6.470;2023-11-18T02:33:27;18.67;;;9.20;;
10896;SDS011;5501;51.176;6.470;2023-11-18T02:38:35;13.50;;;8.75;;
10896;SDS011;5501;51.176;6.470;2023-11-18T02:43:43;19.48;;;10.27;;
10896;SDS011;5501;51.176;6.470;2023-11-18T02:48:46;22.85;;;10.10;;
10896;SDS011;5501;51.176;6.470;2023-11-18T02:53:48;21.17;;;11.52;;
10896;SDS011;5501;51.176;6.470;2023-11-18T02:58:50;21.88;;;10.32;;
10896;SDS011;5501;51.176;6.470;2023-11-18T03:03:51;21.20;;;10.00;;
10896;SDS011;5501;51.176;6.470;2023-11-18T03:08:53;28.88;;;11.13;;
10896;SDS011;5501;51.176;6.470;2023-11-18T03:13:55;24.33;;;10.27;;
10896;SDS011;5501;51.176;6.470;2023-11-18T03:18:58;24.52;;;10.35;;
10896;SDS011;5501;51.176;6.470;2023-11-18T03:24:00;26.15;;;11.40;;
10896;SDS011;5501;51.176;6.470;2023-11-18T03:29:01;32.00;;;12.82;;
10896;SDS011;5501;51.176;6.470;2023-11-18T03:34:04;28.92;;;12.50;;
10896;SDS011;5501;51.176;6.470;2023-11-18T03:39:06;28.00;;;13.00;;
10896;SDS011;5501;51.176;6.470;2023-11-18T03:44:07;25.42;;;12.85;;
10896;SDS011;5501;51.176;6.470;2023-11-18T03:49:09;34.45;;;12.57;;
10896;SDS011;5501;51.176;6.470;2023-11-18T03:54:11;35.85;;;14.05;;
10896;SDS011;5501;51.176;6.470;2023-11-18T03:59:14;40.45;;;13.85;;
10896;SDS011;5501;51.176;6.470;2023-11-18T04:04:16;40.85;;;16.80;;
10896;SDS011;5501;51.176;6.470;2023-11-18T04:09:18;54.03;;;19.27;;
10896;SDS011;5501;51.176;6.470;2023-11-18T04:14:21;50.83;;;16.23;;
10896;SDS011;5501;51.176;6.470;2023-11-18T04:19:23;41.45;;;16.30;;
10896;SDS011;5501;51.176;6.470;2023-11-18T04:24:24;43.83;;;16.17;;
10896;SDS011;5501;51.176;6.470;2023-11-18T04:29:26;45.95;;;14.35;;
10896;SDS011;5501;51.176;6.470;2023-11-18T04:34:27;40.95;;;15.35;;
10896;SDS011;5501;51.176;6.470;2023-11-18T04:39:31;47.35;;;15.75;;
10896;SDS011;5501;51.176;6.470;2023-11-18T04:44:33;33.83;;;14.65;;
10896;SDS011;5501;51.176;6.470;2023-11-18T04:49:34;44.58;;;15.57;;
10896;SDS011;5501;51.176;6.470;2023-11-18T04:54:36;40.55;;;14.88;;
10896;SDS011;5501;51.176;6.470;2023-11-18T04:59:38;43.88;;;16.23;;
10896;SDS011;5501;51.176;6.470;2023-11-18T05:04:39;43.45;;;16.65;;
10896;SDS011;5501;51.176;6.470;2023-11-18T05:09:42;37.85;;;15.43;;
10896;SDS011;5501;51.176;6.470;2023-11-18T05:14:44;38.13;;;16.50;;
10896;SDS011;5501;51.176;6.470;2023-11-18T05:19:45;32.25;;;14.13;;
10896;SDS011;5501;51.176;6.470;2023-11-18T05:24:47;41.80;;;14.05;;
10896;SDS011;5501;51.176;6.470;2023-11-18T05:29:49;38.10;;;15.25;;
10896;SDS011;5501;51.176;6.470;2023-11-18T05:34:55;32.70;;;14.40;;
10896;SDS011;5501;51.176;6.470;2023-11-18T05:39:59;32.17;;;12.98;;
10896;SDS011;5501;51.176;6.470;2023-11-18T05:45:07;35.10;;;12.93;;
10896;SDS011;5501;51.176;6.470;2023-11-18T05:50:10;33.92;;;14.50;;
10896;SDS011;5501;51.176;6.470;2023-11-18T05:55:12;26.73;;;14.75;;
10896;SDS011;5501;51.176;6.470;2023-11-18T06:00:14;33.10;;;13.50;;
10896;SDS011;5501;51.176;6.470;2023-11-18T06:05:25;28.10;;;12.82;;
10896;SDS011;5501;51.176;6.470;2023-11-18T06:10:27;32.72;;;12.70;;
10896;SDS011;5501;51.176;6.470;2023-11-18T06:15:32;30.55;;;13.43;;
10896;SDS011;5501;51.176;6.470;2023-11-18T06:20:34;28.00;;;11.75;;
10896;SDS011;5501;51.176;6.470;2023-11-18T06:25:36;27.17;;;12.75;;
10896;SDS011;5501;51.176;6.470;2023-11-18T06:30:38;25.90;;;12.38;;
10896;SDS011;5501;51.176;6.470;2023-11-18T06:35:40;19.90;;;10.15;;
10896;SDS011;5501;51.176;6.470;2023-11-18T06:40:41;21.83;;;10.95;;
10896;SDS011;5501;51.176;6.470;2023-11-18T06:45:43;23.10;;;10.32;;
10896;SDS011;5501;51.176;6.470;2023-11-18T06:50:45;26.95;;;11.43;;
10896;SDS011;5501;51.176;6.470;2023-11-18T06:55:47;25.13;;;12.30;;
10896;SDS011;5501;51.176;6.470;2023-11-18T07:00:49;28.20;;;11.50;;
10896;SDS011;5501;51.176;6.470;2023-11-18T07:05:50;29.98;;;13.02;;
10896;SDS011;5501;51.176;6.470;2023-11-18T07:10:52;28.80;;;12.63;;
10896;SDS011;5501;51.176;6.470;2023-11-18T07:15:54;27.25;;;10.90;;
10896;SDS011;5501;51.176;6.470;2023-11-18T07:21:00;24.77;;;11.20;;
10896;SDS011;5501;51.176;6.470;2023-11-18T07:26:04;23.10;;;11.70;;
10896;SDS011;5501;51.176;6.470;2023-11-18T07:31:07;26.88;;;12.18;;
10896;SDS011;5501;51.176;6.470;2023-11-18T07:36:09;25.38;;;10.57;;
10896;SDS011;5501;51.176;6.470;2023-11-18T07:41:12;25.02;;;11.07;;
10896;SDS011;5501;51.176;6.470;2023-11-18T07:46:25;27.77;;;10.98;;
10896;SDS011;5501;51.176;6.470;2023-11-18T07:51:26;19.20;;;9.90;;
10896;SDS011;5501;51.176;6.470;2023-11-18T07:56:28;22.20;;;10.70;;
10896;SDS011;5501;51.176;6.470;2023-11-18T08:01:30;22.98;;;11.07;;
10896;SDS011;5501;51.176;6.470;2023-11-18T08:06:31;23.63;;;9.93;;
10896;SDS011;5501;51.176;6.470;2023-11-18T08:11:34;23.33;;;9.63;;
10896;SDS011;5501;51.176;6.470;2023-11-18T08:16:35;21.45;;;10.20;;
10896;SDS011;5501;51.176;6.470;2023-11-18T08:21:37;21.25;;;10.45;;
10896;SDS011;5501;51.176;6.470;2023-11-18T08:26:39;16.83;;;8.73;;
10896;SDS011;5501;51.176;6.470;2023-11-18T08:31:41;17.83;;;8.65;;
10896;SDS011;5501;51.176;6.470;2023-11-18T08:36:42;18.58;;;9.07;;
10896;SDS011;5501;51.176;6.470;2023-11-18T08:41:45;18.63;;;9.43;;
10896;SDS011;5501;51.176;6.470;2023-11-18T08:46:47;19.15;;;10.60;;
10896;SDS011;5501;51.176;6.470;2023-11-18T08:51:49;18.02;;;8.88;;
10896;SDS011;5501;51.176;6.470;2023-11-18T08:56:57;16.88;;;10.07;;
10896;SDS011;5501;51.176;6.470;2023-11-18T09:01:58;17.00;;;8.75;;
10896;SDS011;5501;51.176;6.470;2023-11-18T09:07:01;19.02;;;10.13;;
10896;SDS011;5501;51.176;6.470;2023-11-18T09:12:02;20.50;;;8.82;;
10896;SDS011;5501;51.176;6.470;2023-11-18T09:17:04;20.75;;;7.00;;
10896;SDS011;5501;51.176;6.470;2023-11-18T09:22:08;16.40;;;7.75;;
10896;SDS011;5501;51.176;6.470;2023-11-18T09:27:14;12.52;;;7.30;;
10896;SDS011;5501;51.176;6.470;2023-11-18T09:32:16;17.85;;;7.28;;
10896;SDS011;5501;51.176;6.470;2023-11-18T09:37:18;9.68;;;7.00;;
10896;SDS011;5501;51.176;6.470;2023-11-18T09:42:20;13.55;;;7.15;;
10896;SDS011;5501;51.176;6.470;2023-11-18T09:47:21;14.75;;;8.15;;
10896;SDS011;5501;51.176;6.470;2023-11-18T09:52:28;15.52;;;8.05;;
10896;SDS011;5501;51.176;6.470;2023-11-18T09:57:37;16.25;;;7.35;;
10896;SDS011;5501;51.176;6.470;2023-11-18T10:02:41;12.30;;;6.30;;
10896;SDS011;5501;51.176;6.470;2023-11-18T10:07:46;14.13;;;6.07;;
10896;SDS011;5501;51.176;6.470;2023-11-18T10:12:51;13.60;;;6.80;;
10896;SDS011;5501;51.176;6.470;2023-11-18T10:17:54;14.07;;;6.72;;
10896;SDS011;5501;51.176;6.470;2023-11-18T10:23:08;11.93;;;6.00;;
10896;SDS011;5501;51.176;6.470;2023-11-18T10:28:24;10.68;;;7.35;;
10896;SDS011;5501;51.176;6.470;2023-11-18T10:33:30;20.35;;;7.47;;
10896;SDS011;5501;51.176;6.470;2023-11-18T10:38:38;10.18;;;5.70;;
10896;SDS011;5501;51.176;6.470;2023-11-18T10:43:48;12.02;;;5.95;;
10896;SDS011;5501;51.176;6.470;2023-11-18T10:48:50;12.90;;;5.65;;
10896;SDS011;5501;51.176;6.470;2023-11-18T10:53:52;9.90;;;3.58;;
10896;SDS011;5501;51.176;6.470;2023-11-18T10:59:05;4.18;;;3.28;;
10896;SDS011;5501;51.176;6.470;2023-11-18T11:04:08;8.85;;;3.50;;
10896;SDS011;5501;51.176;6.470;2023-11-18T11:09:11;6.85;;;3.63;;
10896;SDS011;5501;51.176;6.470;2023-11-18T11:14:20;4.47;;;3.38;;
10896;SDS011;5501;51.176;6.470;2023-11-18T11:19:28;6.50;;;3.35;;
10896;SDS011;5501;51.176;6.470;2023-11-18T11:24:48;6.85;;;3.95;;
10896;SDS011;5501;51.176;6.470;2023-11-18T11:30:22;6.13;;;3.25;;
10896;SDS011;5501;51.176;6.470;2023-11-18T11:35:29;16.45;;;2.88;;
10896;SDS011;5501;51.176;6.470;2023-11-18T11:40:32;8.25;;;3.20;;
10896;SDS011;5501;51.176;6.470;2023-11-18T11:45:37;3.90;;;2.38;;
10896;SDS011;5501;51.176;6.470;2023-11-18T11:56:05;3.55;;;2.45;;
10896;SDS011;5501;51.176;6.470;2023-11-18T12:01:26;2.78;;;2.33;;
10896;SDS011;5501;51.176;6.470;2023-11-18T12:06:34;6.75;;;2.03;;
10896;SDS011;5501;51.176;6.470;2023-11-18T12:11:46;4.88;;;2.72;;
10896;SDS011;5501;51.176;6.470;2023-11-18T12:17:07;8.27;;;2.60;;
10896;SDS011;5501;51.176;6.470;2023-11-18T12:22:15;5.03;;;2.95;;
10896;SDS011;5501;51.176;6.470;2023-11-18T12:48:53;3.03;;;1.67;;
10896;SDS011;5501;51.176;6.470;2023-11-18T12:54:01;2.13;;;1.63;;
10896;SDS011;5501;51.176;6.470;2023-11-18T12:59:04;1.48;;;1.30;;
10896;SDS011;5501;51.176;6.470;2023-11-18T13:04:07;6.47;;;1.77;;
10896;SDS011;5501;51.176;6.470;2023-11-18T13:09:10;9.77;;;2.85;;
10896;SDS011;5501;51.176;6.470;2023-11-18T13:14:12;6.63;;;1.90;;
10896;SDS011;5501;51.176;6.470;2023-11-18T13:19:22;3.85;;;1.27;;
10896;SDS011;5501;51.176;6.470;2023-11-18T13:24:25;5.00;;;1.58;;
10896;SDS011;5501;51.176;6.470;2023-11-18T13:29:28;3.83;;;1.33;;
10896;SDS011;5501;51.176;6.470;2023-11-18T13:34:33;1.45;;;1.15;;
10896;SDS011;5501;51.176;6.470;2023-11-18T13:39:37;1.65;;;1.27;;
10896;SDS011;5501;51.176;6.470;2023-11-18T13:44:40;2.67;;;1.23;;
10896;SDS011;5501;51.176;6.470;2023-11-18T13:49:44;3.97;;;1.10;;
10896;SDS011;5501;51.176;6.470;2023-11-18T13:54:47;3.08;;;1.40;;
10896;SDS011;5501;51.176;6.470;2023-11-18T13:59:51;2.03;;;1.50;;
10896;SDS011;5501;51.176;6.470;2023-11-18T14:04:55;2.97;;;1.50;;
10896;SDS011;5501;51.176;6.470;2023-11-18T14:09:57;2.35;;;1.00;;
10896;SDS011;5501;51.176;6.470;2023-11-18T14:15:01;4.07;;;1.40;;
10896;SDS011;5501;51.176;6.470;2023-11-18T14:20:05;2.08;;;1.30;;
10896;SDS011;5501;51.176;6.470;2023-11-18T14:25:08;2.00;;;1.30;;
10896;SDS011;5501;51.176;6.470;2023-11-18T14:30:10;3.15;;;1.10;;
10896;SDS011;5501;51.176;6.470;2023-11-18T14:35:12;4.78;;;1.38;;
10896;SDS011;5501;51.176;6.470;2023-11-18T14:40:18;2.38;;;1.45;;
10896;SDS011;5501;51.176;6.470;2023-11-18T14:45:21;1.75;;;1.48;;
10896;SDS011;5501;51.176;6.470;2023-11-18T14:50:23;7.68;;;1.63;;
10896;SDS011;5501;51.176;6.470;2023-11-18T14:55:27;1.35;;;1.25;;
10896;SDS011;5501;51.176;6.470;2023-11-18T15:00:30;1.38;;;1.23;;
10896;SDS011;5501;51.176;6.470;2023-11-18T15:05:34;2.97;;;1.67;;
10896;SDS011;5501;51.176;6.470;2023-11-18T15:10:36;5.35;;;1.67;;
10896;SDS011;5501;51.176;6.470;2023-11-18T15:15:41;1.60;;;1.17;;
10896;SDS011;5501;51.176;6.470;2023-11-18T15:20:43;2.63;;;1.50;;
10896;SDS011;5501;51.176;6.470;2023-11-18T15:25:49;1.70;;;1.55;;
10896;SDS011;5501;51.176;6.470;2023-11-18T15:30:53;1.75;;;1.30;;
10896;SDS011;5501;51.176;6.470;2023-11-18T15:35:54;1.50;;;1.13;;
10896;SDS011;5501;51.176;6.470;2023-11-18T15:40:56;1.10;;;0.93;;
10896;SDS011;5501;51.176;6.470;2023-11-18T15:45:58;1.55;;;1.38;;
10896;SDS011;5501;51.176;6.470;2023-11-18T15:51:01;1.75;;;1.35;;
10896;SDS011;5501;51.176;6.470;2023-11-18T15:56:03;3.03;;;1.40;;
10896;SDS011;5501;51.176;6.470;2023-11-18T16:01:05;2.30;;;1.45;;
10896;SDS011;5501;51.176;6.470;2023-11-18T16:06:08;2.25;;;1.30;;
10896;SDS011;5501;51.176;6.470;2023-11-18T16:11:11;1.27;;;1.08;;
10896;SDS011;5501;51.176;6.470;2023-11-18T16:16:13;3.17;;;1.70;;
10896;SDS011;5501;51.176;6.470;2023-11-18T16:21:15;1.90;;;1.40;;
10896;SDS011;5501;51.176;6.470;2023-11-18T16:26:19;2.35;;;1.45;;
10896;SDS011;5501;51.176;6.470;2023-11-18T16:31:21;2.38;;;1.40;;
10896;SDS011;5501;51.176;6.470;2023-11-18T16:36:25;2.47;;;1.40;;
10896;SDS011;5501;51.176;6.470;2023-11-18T16:41:28;1.27;;;1.13;;
10896;SDS011;5501;51.176;6.470;2023-11-18T16:46:45;1.73;;;1.15;;
10896;SDS011;5501;51.176;6.470;2023-11-18T16:51:47;1.60;;;1.20;;
10896;SDS011;5501;51.176;6.470;2023-11-18T16:56:56;1.30;;;1.17;;
10896;SDS011;5501;51.176;6.470;2023-11-18T17:01:57;3.28;;;1.67;;
10896;SDS011;5501;51.176;6.470;2023-11-18T17:06:59;1.65;;;1.30;;
10896;SDS011;5501;51.176;6.470;2023-11-18T17:12:00;1.95;;;1.20;;
10896;SDS011;5501;51.176;6.470;2023-11-18T17:17:02;1.50;;;1.40;;
10896;SDS011;5501;51.176;6.470;2023-11-18T17:22:05;2.65;;;1.60;;
10896;SDS011;5501;51.176;6.470;2023-11-18T17:27:08;2.47;;;1.63;;
10896;SDS011;5501;51.176;6.470;2023-11-18T17:32:09;1.20;;;1.05;;
10896;SDS011;5501;51.176;6.470;2023-11-18T17:37:11;1.23;;;1.10;;
10896;SDS011;5501;51.176;6.470;2023-11-18T17:42:13;1.02;;;0.93;;
10896;SDS011;5501;51.176;6.470;2023-11-18T17:47:14;2.53;;;1.80;;
10896;SDS011;5501;51.176;6.470;2023-11-18T17:52:17;1.42;;;1.33;;
10896;SDS011;5501;51.176;6.470;2023-11-18T17:57:18;2.95;;;2.13;;
10896;SDS011;5501;51.176;6.470;2023-11-18T18:02:20;2.05;;;1.77;;
10896;SDS011;5501;51.176;6.470;2023-11-18T18:07:21;2.15;;;1.80;;
10896;SDS011;5501;51.176;6.470;2023-11-18T18:12:23;2.55;;;1.70;;
10896;SDS011;5501;51.176;6.470;2023-11-18T18:17:25;1.92;;;1.58;;
10896;SDS011;5501;51.176;6.470;2023-11-18T18:22:27;2.25;;;1.63;;
10896;SDS011;5501;51.176;6.470;2023-11-18T18:27:28;3.55;;;1.70;;
10896;SDS011;5501;51.176;6.470;2023-11-18T18:32:30;2.78;;;1.80;;
10896;SDS011;5501;51.176;6.470;2023-11-18T18:37:32;2.00;;;1.48;;
10896;SDS011;5501;51.176;6.470;2023-11-18T18:42:35;2.53;;;1.70;;
10896;SDS011;5501;51.176;6.470;2023-11-18T18:47:36;2.92;;;1.70;;
10896;SDS011;5501;51.176;6.470;2023-11-18T18:52:39;1.70;;;1.45;;
10896;SDS011;5501;51.176;6.470;2023-11-18T18:57:41;1.40;;;1.30;;
10896;SDS011;5501;51.176;6.470;2023-11-18T19:02:43;2.65;;;2.03;;
10896;SDS011;5501;51.176;6.470;2023-11-18T19:07:45;2.92;;;2.30;;
10896;SDS011;5501;51.176;6.470;2023-11-18T19:12:46;2.08;;;1.63;;
10896;SDS011;5501;51.176;6.470;2023-11-18T19:17:48;1.73;;;1.58;;
10896;SDS011;5501;51.176;6.470;2023-11-18T19:22:51;2.10;;;1.83;;
10896;SDS011;5501;51.176;6.470;2023-11-18T19:27:53;3.47;;;2.53;;
10896;SDS011;5501;51.176;6.470;2023-11-18T19:32:54;2.35;;;1.85;;
10896;SDS011;5501;51.176;6.470;2023-11-18T19:37:56;3.53;;;2.53;;
10896;SDS011;5501;51.176;6.470;2023-11-18T19:42:58;3.97;;;2.38;;
10896;SDS011;5501;51.176;6.470;2023-11-18T19:48:00;2.85;;;2.00;;
10896;SDS011;5501;51.176;6.470;2023-11-18T19:53:02;1.13;;;0.93;;
10896;SDS011;5501;51.176;6.470;2023-11-18T19:58:04;1.45;;;1.23;;
10896;SDS011;5501;51.176;6.470;2023-11-18T20:03:05;1.13;;;1.00;;
10896;SDS011;5501;51.176;6.470;2023-11-18T20:08:07;2.40;;;0.90;;
10896;SDS011;5501;51.176;6.470;2023-11-18T20:13:10;0.80;;;0.80;;
10896;SDS011;5501;51.176;6.470;2023-11-18T20:18:12;1.20;;;1.10;;
10896;SDS011;5501;51.176;6.470;2023-11-18T20:23:14;1.60;;;1.50;;
10896;SDS011;5501;51.176;6.470;2023-11-18T20:28:15;0.90;;;0.90;;
10896;SDS011;5501;51.176;6.470;2023-11-18T20:33:17;1.45;;;0.98;;
10896;SDS011;5501;51.176;6.470;2023-11-18T20:38:18;2.25;;;1.10;;
10896;SDS011;5501;51.176;6.470;2023-11-18T20:43:21;1.42;;;0.93;;
10896;SDS011;5501;51.176;6.470;2023-11-18T20:48:22;2.47;;;1.40;;
10896;SDS011;5501;51.176;6.470;2023-11-18T20:53:24;2.25;;;1.27;;
10896;SDS011;5501;51.176;6.470;2023-11-18T20:58:26;2.33;;;1.33;;
10896;SDS011;5501;51.176;6.470;2023-11-18T21:03:27;1.35;;;0.93;;
10896;SDS011;5501;51.176;6.470;2023-11-18T21:08:29;1.20;;;1.10;;
10896;SDS011;5501;51.176;6.470;2023-11-18T21:13:31;1.20;;;1.10;;
10896;SDS011;5501;51.176;6.470;2023-11-18T21:18:36;0.77;;;0.77;;
10896;SDS011;5501;51.176;6.470;2023-11-18T21:23:38;2.58;;;1.52;;
10896;SDS011;5501;51.176;6.470;2023-11-18T21:28:40;3.47;;;1.40;;
10896;SDS011;5501;51.176;6.470;2023-11-18T21:33:42;1.13;;;1.02;;
10896;SDS011;5501;51.176;6.470;2023-11-18T21:38:44;0.95;;;0.93;;
10896;SDS011;5501;51.176;6.470;2023-11-18T21:43:54;1.60;;;0.70;;
10896;SDS011;5501;51.176;6.470;2023-11-18T21:48:56;5.47;;;1.08;;
10896;SDS011;5501;51.176;6.470;2023-11-18T21:53:57;1.33;;;0.80;;
10896;SDS011;5501;51.176;6.470;2023-11-18T21:58:59;1.65;;;0.80;;
10896;SDS011;5501;51.176;6.470;2023-11-18T22:04:01;1.20;;;1.10;;
10896;SDS011;5501;51.176;6.470;2023-11-18T22:09:04;1.05;;;0.80;;
10896;SDS011;5501;51.176;6.470;2023-11-18T22:14:06;2.13;;;1.42;;
10896;SDS011;5501;51.176;6.470;2023-11-18T22:19:08;1.95;;;1.33;;
10896;SDS011;5501;51.176;6.470;2023-11-18T22:24:11;2.42;;;1.33;;
10896;SDS011;5501;51.176;6.470;2023-11-18T22:29:14;2.25;;;1.33;;
10896;SDS011;5501;51.176;6.470;2023-11-18T22:34:16;1.63;;;1.38;;
10896;SDS011;5501;51.176;6.470;2023-11-18T22:39:17;2.45;;;1.50;;
10896;SDS011;5501;51.176;6.470;2023-11-18T22:44:24;5.30;;;1.52;;
10896;SDS011;5501;51.176;6.470;2023-11-18T22:49:27;5.22;;;1.80;;
10896;SDS011;5501;51.176;6.470;2023-11-18T22:54:29;1.88;;;1.60;;
10896;SDS011;5501;51.176;6.470;2023-11-18T22:59:31;3.05;;;1.48;;
10896;SDS011;5501;51.176;6.470;2023-11-18T23:04:34;2.08;;;1.58;;
10896;SDS011;5501;51.176;6.470;2023-11-18T23:09:36;3.13;;;1.60;;
10896;SDS011;5501;51.176;6.470;2023-11-18T23:14:38;1.27;;;1.17;;
10896;SDS011;5501;51.176;6.470;2023-11-18T23:19:40;1.58;;;1.20;;
10896;SDS011;5501;51.176;6.470;2023-11-18T23:24:50;2.45;;;1.45;;
10896;SDS011;5501;51.176;6.470;2023-11-18T23:29:53;3.65;;;1.27;;
10896;SDS011;5501;51.176;6.470;2023-11-18T23:34:55;1.85;;;1.20;;
10896;SDS011;5501;51.176;6.470;2023-11-18T23:39:59;1.30;;;1.20;;
10896;SDS011;5501;51.176;6.470;2023-11-18T23:45:00;2.50;;;1.50;;
10896;SDS011;5501;51.176;6.470;2023-11-18T23:50:06;3.15;;;1.70;;
10896;SDS011;5501;51.176;6.470;2023-11-18T23:55:08;3.80;;;1.70;;
